EZY4781 EGFF-EGCC
Flight info
| Callsign | EZY4781 |
|---|---|
| Flight time | 0h 43m |
| Altitude | 18000 |
| Route | BCN1B BCN P69 EXBUM/N0397F200 P69 DIZIM N864 MONTY AXCIS1M |
| Aircraft | A319/M-SDE3FGHIRWY/LB1 |
Departure
| Time | 2026-05-08 11:08 |
|---|---|
| Airport | Cardiff International Airport (EGFF) |
Arrival
| Time | 2026-05-08 11:52 |
|---|---|
| Airport | Manchester Airport (EGCC) |
| Time | Latitude | Longitude | Altitude | Speed | Heading |
|---|---|---|---|---|---|
| 2026-05-08 10:53 | 51.39873 | -3.34179 | 225 ft | 0 kts | 117° |
| 2026-05-08 11:01 | 51.39881 | -3.34203 | 246 ft | 4 kts | 124° |
| 2026-05-08 11:01 | 51.39899 | -3.34233 | 218 ft | 4 kts | 154° |
| 2026-05-08 11:01 | 51.39920 | -3.34238 | 226 ft | 0 kts | 206° |
| 2026-05-08 11:04 | 51.39884 | -3.34265 | 225 ft | 26 kts | 204° |
| 2026-05-08 11:04 | 51.39857 | -3.34285 | 225 ft | 0 kts | 211° |
| 2026-05-08 11:05 | 51.39852 | -3.34290 | 225 ft | 5 kts | 213° |
| 2026-05-08 11:06 | 51.39880 | -3.34423 | 225 ft | 21 kts | 297° |
| 2026-05-08 11:06 | 51.39952 | -3.34654 | 222 ft | 25 kts | 294° |
| 2026-05-08 11:06 | 51.40029 | -3.34915 | 218 ft | 27 kts | 297° |
| 2026-05-08 11:06 | 51.40117 | -3.35188 | 222 ft | 28 kts | 297° |
| 2026-05-08 11:07 | 51.40132 | -3.35464 | 217 ft | 26 kts | 228° |
| 2026-05-08 11:07 | 51.40025 | -3.35493 | 217 ft | 10 kts | 108° |
| 2026-05-08 11:07 | 51.39994 | -3.35384 | 217 ft | 12 kts | 115° |
| 2026-05-08 11:07 | 51.39952 | -3.35250 | 216 ft | 15 kts | 118° |
| 2026-05-08 11:08 | 51.39901 | -3.35091 | 221 ft | 19 kts | 116° |
| 2026-05-08 11:08 | 51.39701 | -3.34455 | 225 ft | 111 kts | 117° |
| 2026-05-08 11:08 | 51.39242 | -3.33000 | 396 ft | 163 kts | 116° |
| 2026-05-08 11:08 | 51.38721 | -3.31382 | 1211 ft | 162 kts | 116° |
| 2026-05-08 11:09 | 51.38220 | -3.29732 | 1907 ft | 172 kts | 117° |
| 2026-05-08 11:09 | 51.37664 | -3.27894 | 2363 ft | 195 kts | 117° |
| 2026-05-08 11:09 | 51.37033 | -3.25809 | 2821 ft | 220 kts | 117° |
| 2026-05-08 11:09 | 51.36326 | -3.23480 | 3448 ft | 244 kts | 117° |
| 2026-05-08 11:10 | 51.35603 | -3.20943 | 4369 ft | 257 kts | 110° |
| 2026-05-08 11:10 | 51.35434 | -3.18050 | 5389 ft | 269 kts | 85° |
| 2026-05-08 11:10 | 51.36055 | -3.15188 | 6416 ft | 280 kts | 59° |
| 2026-05-08 11:10 | 51.37410 | -3.12914 | 7382 ft | 288 kts | 33° |
| 2026-05-08 11:11 | 51.39254 | -3.11745 | 8352 ft | 293 kts | 7° |
| 2026-05-08 11:11 | 51.41287 | -3.11951 | 9355 ft | 295 kts | 343° |
| 2026-05-08 11:11 | 51.43287 | -3.12803 | 10291 ft | 304 kts | 343° |
| 2026-05-08 11:11 | 51.45480 | -3.12971 | 10658 ft | 334 kts | 10° |
| 2026-05-08 11:12 | 51.47656 | -3.11360 | 11024 ft | 358 kts | 39° |
| 2026-05-08 11:12 | 51.49183 | -3.08181 | 11727 ft | 365 kts | 68° |
| 2026-05-08 11:12 | 51.49676 | -3.04217 | 12570 ft | 365 kts | 94° |
| 2026-05-08 11:12 | 51.49038 | -3.00314 | 13454 ft | 363 kts | 121° |
| 2026-05-08 11:13 | 51.47411 | -2.97282 | 14268 ft | 361 kts | 146° |
| 2026-05-08 11:13 | 51.45126 | -2.95720 | 15043 ft | 360 kts | 172° |
| 2026-05-08 11:13 | 51.42641 | -2.95935 | 15810 ft | 362 kts | 197° |
| 2026-05-08 11:13 | 51.40443 | -2.97898 | 16566 ft | 367 kts | 222° |
| 2026-05-08 11:14 | 51.38913 | -3.01132 | 17307 ft | 374 kts | 240° |
| 2026-05-08 11:14 | 51.37924 | -3.05021 | 17846 ft | 380 kts | 252° |
| 2026-05-08 11:14 | 51.37394 | -3.09189 | 17987 ft | 386 kts | 258° |
| 2026-05-08 11:14 | 51.36701 | -3.13466 | 18012 ft | 406 kts | 253° |
| 2026-05-08 11:15 | 51.36373 | -3.17986 | 18002 ft | 416 kts | 273° |
| 2026-05-08 11:15 | 51.37163 | -3.22446 | 18010 ft | 422 kts | 296° |
| 2026-05-08 11:15 | 51.38988 | -3.26134 | 18009 ft | 427 kts | 319° |
| 2026-05-08 11:15 | 51.41570 | -3.28452 | 18009 ft | 430 kts | 341° |
| 2026-05-08 11:16 | 51.44534 | -3.29076 | 18012 ft | 431 kts | 1° |
| 2026-05-08 11:16 | 51.47535 | -3.28885 | 18008 ft | 432 kts | 2° |
| 2026-05-08 11:16 | 51.50503 | -3.28682 | 18009 ft | 432 kts | 2° |
| 2026-05-08 11:16 | 51.53507 | -3.28472 | 18011 ft | 432 kts | 2° |
| 2026-05-08 11:17 | 51.56549 | -3.28256 | 18008 ft | 432 kts | 2° |
| 2026-05-08 11:17 | 51.59517 | -3.28045 | 18007 ft | 432 kts | 2° |
| 2026-05-08 11:17 | 51.62534 | -3.27829 | 18009 ft | 432 kts | 2° |
| 2026-05-08 11:17 | 51.65543 | -3.27613 | 18036 ft | 432 kts | 2° |
| 2026-05-08 11:18 | 51.68547 | -3.27388 | 18039 ft | 432 kts | 3° |
| 2026-05-08 11:18 | 51.71496 | -3.26444 | 18035 ft | 433 kts | 18° |
| 2026-05-08 11:18 | 51.74375 | -3.25035 | 18038 ft | 433 kts | 14° |
| 2026-05-08 11:18 | 51.77341 | -3.24165 | 18045 ft | 433 kts | 7° |
| 2026-05-08 11:19 | 51.80310 | -3.23665 | 18044 ft | 433 kts | 4° |
| 2026-05-08 11:19 | 51.83317 | -3.23281 | 18043 ft | 433 kts | 4° |
| 2026-05-08 11:19 | 51.86323 | -3.22851 | 18041 ft | 434 kts | 5° |
| 2026-05-08 11:19 | 51.89325 | -3.22298 | 18040 ft | 434 kts | 7° |
| 2026-05-08 11:20 | 51.92314 | -3.21620 | 18037 ft | 434 kts | 8° |
| 2026-05-08 11:20 | 51.95302 | -3.20856 | 18035 ft | 434 kts | 9° |
| 2026-05-08 11:20 | 51.98286 | -3.20060 | 18031 ft | 434 kts | 9° |
| 2026-05-08 11:20 | 52.01227 | -3.19275 | 18038 ft | 434 kts | 8° |
| 2026-05-08 11:21 | 52.04210 | -3.18550 | 18022 ft | 434 kts | 5° |
| 2026-05-08 11:21 | 52.07228 | -3.18272 | 18027 ft | 434 kts | 2° |
| 2026-05-08 11:21 | 52.10248 | -3.18047 | 18028 ft | 434 kts | 1° |
| 2026-05-08 11:21 | 52.13263 | -3.17827 | 18028 ft | 434 kts | 2° |
| 2026-05-08 11:22 | 52.16280 | -3.17603 | 18031 ft | 434 kts | 2° |
| 2026-05-08 11:22 | 52.19295 | -3.17375 | 18031 ft | 434 kts | 2° |
| 2026-05-08 11:22 | 52.22314 | -3.17141 | 18029 ft | 434 kts | 2° |
| 2026-05-08 11:22 | 52.25328 | -3.16905 | 18039 ft | 434 kts | 1° |
| 2026-05-08 11:23 | 52.28347 | -3.16672 | 18035 ft | 434 kts | 1° |
| 2026-05-08 11:23 | 52.31357 | -3.16439 | 18039 ft | 434 kts | 2° |
| 2026-05-08 11:23 | 52.34373 | -3.16205 | 18039 ft | 434 kts | 2° |
| 2026-05-08 11:23 | 52.37389 | -3.15969 | 18039 ft | 434 kts | 2° |
| 2026-05-08 11:24 | 52.40410 | -3.15733 | 18035 ft | 434 kts | 2° |
| 2026-05-08 11:24 | 52.43427 | -3.15499 | 18036 ft | 434 kts | 2° |
| 2026-05-08 11:24 | 52.46401 | -3.15267 | 18037 ft | 434 kts | 2° |
| 2026-05-08 11:24 | 52.49423 | -3.15034 | 18050 ft | 434 kts | 1° |
| 2026-05-08 11:25 | 52.52441 | -3.14801 | 18044 ft | 434 kts | 1° |
| 2026-05-08 11:25 | 52.55457 | -3.14567 | 18042 ft | 434 kts | 1° |
| 2026-05-08 11:25 | 52.58474 | -3.14332 | 18041 ft | 434 kts | 1° |
| 2026-05-08 11:25 | 52.61491 | -3.14094 | 18041 ft | 434 kts | 1° |
| 2026-05-08 11:26 | 52.64506 | -3.13857 | 18036 ft | 433 kts | 1° |
| 2026-05-08 11:26 | 52.67520 | -3.13620 | 18035 ft | 433 kts | 1° |
| 2026-05-08 11:26 | 52.70529 | -3.13399 | 18031 ft | 433 kts | 0° |
| 2026-05-08 11:26 | 52.73535 | -3.13676 | 18034 ft | 431 kts | 351° |
| 2026-05-08 11:27 | 52.76506 | -3.14376 | 18031 ft | 431 kts | 350° |
| 2026-05-08 11:27 | 52.79473 | -3.15082 | 18029 ft | 431 kts | 350° |
| 2026-05-08 11:27 | 52.82438 | -3.15791 | 18028 ft | 431 kts | 350° |
| 2026-05-08 11:27 | 52.85399 | -3.16495 | 18004 ft | 425 kts | 350° |
| 2026-05-08 11:28 | 52.88251 | -3.17146 | 17549 ft | 416 kts | 352° |
| 2026-05-08 11:28 | 52.91135 | -3.17271 | 16993 ft | 414 kts | 1° |
| 2026-05-08 11:28 | 52.93995 | -3.17027 | 16406 ft | 410 kts | 2° |
| 2026-05-08 11:28 | 52.96807 | -3.16795 | 15845 ft | 407 kts | 2° |
| 2026-05-08 11:29 | 52.99545 | -3.16579 | 15324 ft | 403 kts | 2° |
| 2026-05-08 11:29 | 53.02384 | -3.16359 | 14773 ft | 399 kts | 2° |
| 2026-05-08 11:29 | 53.05144 | -3.16145 | 14213 ft | 396 kts | 2° |
| 2026-05-08 11:29 | 53.07885 | -3.15932 | 13629 ft | 393 kts | 2° |
| 2026-05-08 11:30 | 53.10608 | -3.15723 | 13165 ft | 390 kts | 2° |
| 2026-05-08 11:30 | 53.13317 | -3.15514 | 13061 ft | 390 kts | 2° |
| 2026-05-08 11:30 | 53.16033 | -3.15300 | 13085 ft | 391 kts | 2° |
| 2026-05-08 11:30 | 53.18745 | -3.15084 | 13083 ft | 391 kts | 2° |
| 2026-05-08 11:31 | 53.21467 | -3.14864 | 13089 ft | 389 kts | 2° |
| 2026-05-08 11:31 | 53.24102 | -3.14651 | 13081 ft | 368 kts | 2° |
| 2026-05-08 11:31 | 53.26592 | -3.14451 | 13083 ft | 349 kts | 2° |
| 2026-05-08 11:31 | 53.28967 | -3.14261 | 13082 ft | 332 kts | 2° |
| 2026-05-08 11:32 | 53.31206 | -3.14084 | 12959 ft | 321 kts | 2° |
| 2026-05-08 11:32 | 53.33400 | -3.13911 | 12845 ft | 311 kts | 2° |
| 2026-05-08 11:32 | 53.35528 | -3.13708 | 12710 ft | 302 kts | 6° |
| 2026-05-08 11:32 | 53.37526 | -3.12854 | 12579 ft | 293 kts | 23° |
| 2026-05-08 11:33 | 53.39264 | -3.11207 | 12449 ft | 283 kts | 38° |
| 2026-05-08 11:33 | 53.40652 | -3.08962 | 12317 ft | 273 kts | 53° |
| 2026-05-08 11:33 | 53.41670 | -3.06340 | 12175 ft | 264 kts | 62° |
| 2026-05-08 11:33 | 53.42582 | -3.03708 | 12002 ft | 259 kts | 62° |
| 2026-05-08 11:34 | 53.43483 | -3.01111 | 11754 ft | 257 kts | 62° |
| 2026-05-08 11:34 | 53.44078 | -2.99400 | 11568 ft | 256 kts | 62° |
| 2026-05-08 11:34 | 53.45271 | -2.95956 | 11183 ft | 255 kts | 62° |
| 2026-05-08 11:34 | 53.45858 | -2.94255 | 10998 ft | 254 kts | 62° |
| 2026-05-08 11:35 | 53.46739 | -2.91700 | 10708 ft | 253 kts | 62° |
| 2026-05-08 11:35 | 53.47618 | -2.89145 | 10423 ft | 252 kts | 62° |
| 2026-05-08 11:35 | 53.48494 | -2.86607 | 10129 ft | 250 kts | 61° |
| 2026-05-08 11:35 | 53.49366 | -2.84081 | 9810 ft | 249 kts | 62° |
| 2026-05-08 11:36 | 53.50233 | -2.81564 | 9483 ft | 248 kts | 62° |
| 2026-05-08 11:36 | 53.51093 | -2.79064 | 9160 ft | 246 kts | 62° |
| 2026-05-08 11:36 | 53.51945 | -2.76582 | 8834 ft | 245 kts | 62° |
| 2026-05-08 11:36 | 53.52795 | -2.74108 | 8497 ft | 243 kts | 62° |
| 2026-05-08 11:37 | 53.53640 | -2.71650 | 8187 ft | 241 kts | 62° |
| 2026-05-08 11:37 | 53.54315 | -2.69110 | 8082 ft | 236 kts | 85° |
| 2026-05-08 11:37 | 53.54054 | -2.66470 | 8107 ft | 231 kts | 116° |
| 2026-05-08 11:37 | 53.53401 | -2.63993 | 8102 ft | 232 kts | 115° |
| 2026-05-08 11:38 | 53.52963 | -2.61378 | 8097 ft | 234 kts | 103° |
| 2026-05-08 11:38 | 53.52742 | -2.58693 | 8099 ft | 235 kts | 99° |
| 2026-05-08 11:38 | 53.52583 | -2.55960 | 8062 ft | 235 kts | 98° |
| 2026-05-08 11:38 | 53.52435 | -2.53243 | 7762 ft | 233 kts | 98° |
| 2026-05-08 11:39 | 53.52279 | -2.50538 | 7434 ft | 232 kts | 99° |
| 2026-05-08 11:39 | 53.52113 | -2.47847 | 7125 ft | 231 kts | 99° |
| 2026-05-08 11:39 | 53.51938 | -2.45180 | 6828 ft | 229 kts | 99° |
| 2026-05-08 11:39 | 53.51759 | -2.42528 | 6505 ft | 228 kts | 99° |
| 2026-05-08 11:40 | 53.51576 | -2.39895 | 6186 ft | 226 kts | 100° |
| 2026-05-08 11:40 | 53.51391 | -2.37288 | 6091 ft | 225 kts | 99° |
| 2026-05-08 11:40 | 53.51206 | -2.34720 | 6100 ft | 227 kts | 100° |
| 2026-05-08 11:40 | 53.51016 | -2.32088 | 6099 ft | 227 kts | 100° |
| 2026-05-08 11:41 | 53.50805 | -2.29185 | 5968 ft | 218 kts | 100° |
| 2026-05-08 11:41 | 53.50099 | -2.19641 | 4954 ft | 207 kts | 101° |
| 2026-05-08 11:41 | 53.49676 | -2.13946 | 5016 ft | 201 kts | 100° |
| 2026-05-08 11:41 | 53.49496 | -2.11559 | 5027 ft | 208 kts | 101° |
| 2026-05-08 11:42 | 53.49316 | -2.09137 | 5030 ft | 210 kts | 100° |
| 2026-05-08 11:42 | 53.48904 | -2.06835 | 5018 ft | 203 kts | 129° |
| 2026-05-08 11:42 | 53.47825 | -2.05422 | 4895 ft | 196 kts | 163° |
| 2026-05-08 11:42 | 53.46497 | -2.05362 | 4670 ft | 192 kts | 198° |
| 2026-05-08 11:43 | 53.45421 | -2.06583 | 4533 ft | 187 kts | 227° |
| 2026-05-08 11:43 | 53.44623 | -2.08254 | 4352 ft | 184 kts | 229° |
| 2026-05-08 11:43 | 53.43796 | -2.09984 | 3822 ft | 194 kts | 229° |
| 2026-05-08 11:43 | 53.42942 | -2.11767 | 3306 ft | 202 kts | 229° |
| 2026-05-08 11:44 | 53.42075 | -2.13578 | 2968 ft | 193 kts | 229° |
| 2026-05-08 11:44 | 53.41272 | -2.15250 | 2837 ft | 176 kts | 229° |
| 2026-05-08 11:44 | 53.40544 | -2.16765 | 2706 ft | 161 kts | 229° |
| 2026-05-08 11:44 | 53.39871 | -2.18166 | 2570 ft | 148 kts | 228° |
| 2026-05-08 11:45 | 53.39245 | -2.19467 | 2441 ft | 140 kts | 228° |
| 2026-05-08 11:45 | 53.38625 | -2.20752 | 2524 ft | 147 kts | 230° |
| 2026-05-08 11:45 | 53.37921 | -2.22209 | 2957 ft | 174 kts | 229° |
| 2026-05-08 11:45 | 53.37181 | -2.23968 | 3523 ft | 197 kts | 245° |
| 2026-05-08 11:46 | 53.37050 | -2.26251 | 3664 ft | 203 kts | 283° |
| 2026-05-08 11:46 | 53.37860 | -2.28187 | 3284 ft | 211 kts | 327° |
| 2026-05-08 11:46 | 53.39264 | -2.28785 | 2939 ft | 212 kts | 9° |
| 2026-05-08 11:46 | 53.40550 | -2.27751 | 2681 ft | 205 kts | 50° |
| 2026-05-08 11:47 | 53.41704 | -2.23631 | 3047 ft | 210 kts | 72° |
| 2026-05-08 11:47 | 53.43769 | -2.15433 | 3006 ft | 199 kts | 71° |
| 2026-05-08 11:47 | 53.45115 | -2.10022 | 3178 ft | 214 kts | 71° |
| 2026-05-08 11:47 | 53.45682 | -2.07754 | 3076 ft | 209 kts | 71° |
| 2026-05-08 11:48 | 53.46013 | -2.05445 | 2996 ft | 201 kts | 101° |
| 2026-05-08 11:48 | 53.45362 | -2.03492 | 3020 ft | 194 kts | 147° |
| 2026-05-08 11:48 | 53.44092 | -2.02957 | 3028 ft | 193 kts | 191° |
| 2026-05-08 11:48 | 53.42979 | -2.04120 | 3037 ft | 193 kts | 235° |
| 2026-05-08 11:49 | 53.42626 | -2.06255 | 2878 ft | 194 kts | 263° |
| 2026-05-08 11:49 | 53.42461 | -2.08498 | 2653 ft | 194 kts | 259° |
| 2026-05-08 11:49 | 53.42259 | -2.10703 | 2438 ft | 193 kts | 258° |
| 2026-05-08 11:49 | 53.41970 | -2.12892 | 2203 ft | 191 kts | 246° |
| 2026-05-08 11:50 | 53.41353 | -2.14828 | 1979 ft | 187 kts | 233° |
| 2026-05-08 11:50 | 53.40613 | -2.16552 | 1736 ft | 177 kts | 230° |
| 2026-05-08 11:50 | 53.39880 | -2.18123 | 1493 ft | 167 kts | 228° |
| 2026-05-08 11:50 | 53.39172 | -2.19608 | 1285 ft | 159 kts | 230° |
| 2026-05-08 11:51 | 53.38493 | -2.21024 | 1044 ft | 152 kts | 229° |
| 2026-05-08 11:51 | 53.37848 | -2.22364 | 843 ft | 144 kts | 230° |
| 2026-05-08 11:51 | 53.37247 | -2.23612 | 657 ft | 133 kts | 231° |
| 2026-05-08 11:51 | 53.36672 | -2.24801 | 473 ft | 130 kts | 232° |
| 2026-05-08 11:52 | 53.36107 | -2.25979 | 311 ft | 129 kts | 232° |
| 2026-05-08 11:52 | 53.35559 | -2.27132 | 253 ft | 119 kts | 229° |
| 2026-05-08 11:52 | 53.35206 | -2.27861 | 237 ft | 47 kts | 231° |
| 2026-05-08 11:52 | 53.35097 | -2.28091 | 233 ft | 17 kts | 236° |